createdAt,value
2024-01-19T00:00:12.108Z,15
2024-01-19T00:01:12.270Z,16
2024-01-19T00:02:12.189Z,15
2024-01-19T00:03:12.136Z,15
2024-01-19T00:04:12.349Z,16
2024-01-19T00:05:12.185Z,16
2024-01-19T00:06:12.329Z,15
2024-01-19T00:07:12.122Z,16
2024-01-19T00:08:12.186Z,16
2024-01-19T00:09:12.128Z,15
2024-01-19T00:10:12.117Z,16
2024-01-19T00:11:12.153Z,16
2024-01-19T00:12:12.128Z,14
2024-01-19T00:13:12.117Z,15
2024-01-19T00:14:12.193Z,15
2024-01-19T00:16:12.146Z,14
2024-01-19T00:17:12.134Z,16
2024-01-19T00:18:12.410Z,16
2024-01-19T00:19:12.139Z,15
2024-01-19T00:20:12.135Z,15
2024-01-19T00:21:12.143Z,15
2024-01-19T00:22:12.114Z,14
2024-01-19T00:23:12.210Z,14
2024-01-19T00:24:12.127Z,14
2024-01-19T00:25:12.123Z,15
2024-01-19T00:26:12.150Z,15
2024-01-19T00:27:12.122Z,14
2024-01-19T00:28:12.119Z,15
2024-01-19T00:29:12.199Z,15
2024-01-19T00:30:12.136Z,16
2024-01-19T00:31:12.120Z,15
2024-01-19T00:32:12.127Z,15
2024-01-19T00:33:12.244Z,16
2024-01-19T00:34:12.135Z,16
2024-01-19T00:35:15.041Z,15
2024-01-19T00:36:12.190Z,17
2024-01-19T00:38:12.197Z,16
2024-01-19T00:39:12.123Z,16
2024-01-19T00:40:12.118Z,17
2024-01-19T00:41:12.186Z,18
2024-01-19T00:42:12.109Z,17
2024-01-19T00:43:12.118Z,17
2024-01-19T00:44:12.919Z,17
2024-01-19T00:45:12.239Z,18
2024-01-19T00:46:12.125Z,18
2024-01-19T00:47:12.184Z,19
2024-01-19T00:48:12.179Z,16
2024-01-19T00:49:12.143Z,18
2024-01-19T00:50:12.176Z,18
2024-01-19T00:51:12.124Z,19
2024-01-19T00:52:12.113Z,19
2024-01-19T00:53:12.194Z,18
2024-01-19T00:54:12.105Z,18
2024-01-19T00:55:12.230Z,18
2024-01-19T00:56:12.125Z,19
2024-01-19T00:57:12.113Z,17
2024-01-19T00:58:12.107Z,18
2024-01-19T00:59:12.127Z,19
2024-01-19T01:00:12.117Z,18
2024-01-19T01:01:12.158Z,18
2024-01-19T01:02:12.135Z,19
2024-01-19T01:03:12.135Z,17
2024-01-19T01:04:12.159Z,18
2024-01-19T01:05:12.129Z,18
2024-01-19T01:06:12.234Z,18
2024-01-19T01:07:12.112Z,19
2024-01-19T01:08:12.141Z,18
2024-01-19T01:09:12.098Z,17
2024-01-19T01:10:12.117Z,18
2024-01-19T01:11:12.113Z,18
2024-01-19T01:12:12.183Z,19
2024-01-19T01:13:12.100Z,18
2024-01-19T01:14:12.137Z,19
2024-01-19T01:15:14.417Z,18
2024-01-19T01:16:12.118Z,17
2024-01-19T01:17:12.110Z,18
2024-01-19T01:18:12.173Z,18
2024-01-19T01:19:12.173Z,17
2024-01-19T01:20:12.282Z,17
2024-01-19T01:21:12.117Z,17
2024-01-19T01:22:12.119Z,19
2024-01-19T01:23:12.118Z,17
2024-01-19T01:24:12.165Z,18
2024-01-19T01:25:12.089Z,19
2024-01-19T01:26:12.109Z,17
2024-01-19T01:27:12.095Z,17
2024-01-19T01:28:12.099Z,17
2024-01-19T01:29:12.111Z,19
2024-01-19T01:30:12.130Z,18
2024-01-19T01:31:12.149Z,19
2024-01-19T01:32:12.098Z,18
2024-01-19T01:33:12.220Z,17
2024-01-19T01:34:12.303Z,17
2024-01-19T01:35:12.109Z,18
2024-01-19T01:36:12.117Z,18
2024-01-19T01:37:12.115Z,17
2024-01-19T01:38:12.104Z,17
2024-01-19T01:39:14.070Z,18
2024-01-19T01:40:12.118Z,18
2024-01-19T01:41:12.260Z,19
2024-01-19T01:42:12.107Z,18
2024-01-19T01:43:12.114Z,18
2024-01-19T01:44:18.940Z,18
2024-01-19T01:45:12.095Z,17
2024-01-19T01:46:12.090Z,17
2024-01-19T01:47:12.101Z,18
2024-01-19T01:48:12.229Z,18
2024-01-19T01:49:12.348Z,18
2024-01-19T01:50:12.296Z,19
2024-01-19T01:51:12.193Z,19
2024-01-19T01:52:12.098Z,18
2024-01-19T01:53:12.100Z,18
2024-01-19T01:54:12.124Z,19
2024-01-19T01:56:12.119Z,18
2024-01-19T01:57:12.126Z,18
2024-01-19T01:58:12.121Z,18
2024-01-19T01:59:12.101Z,18
2024-01-19T02:00:12.087Z,19
2024-01-19T02:01:12.102Z,18
2024-01-19T02:02:12.118Z,18
2024-01-19T02:03:12.133Z,17
2024-01-19T02:04:12.111Z,18
2024-01-19T02:05:12.198Z,17
2024-01-19T02:06:12.296Z,17
2024-01-19T02:08:12.191Z,18
2024-01-19T02:09:12.183Z,18
2024-01-19T02:10:12.104Z,19
2024-01-19T02:11:12.098Z,18
2024-01-19T02:12:12.166Z,18
2024-01-19T02:13:12.095Z,19
2024-01-19T02:14:12.120Z,17
2024-01-19T02:15:12.110Z,17
2024-01-19T02:16:12.113Z,16
2024-01-19T02:18:12.307Z,16
2024-01-19T02:19:12.172Z,17
2024-01-19T02:20:12.136Z,16
2024-01-19T02:21:12.128Z,17
2024-01-19T02:22:12.112Z,16
2024-01-19T02:23:12.110Z,15
2024-01-19T02:24:12.140Z,16
2024-01-19T02:25:12.136Z,17
2024-01-19T02:26:12.127Z,15
2024-01-19T02:27:12.116Z,15
2024-01-19T02:28:12.130Z,15
2024-01-19T02:29:12.103Z,16
2024-01-19T02:30:12.135Z,15
2024-01-19T02:31:12.118Z,15
2024-01-19T02:32:12.103Z,15
2024-01-19T02:33:12.238Z,15
2024-01-19T02:34:12.097Z,15
2024-01-19T02:35:12.129Z,16
2024-01-19T02:36:12.114Z,15
2024-01-19T02:37:12.086Z,15
2024-01-19T02:38:12.102Z,16
2024-01-19T02:39:12.120Z,15
2024-01-19T02:40:12.130Z,15
2024-01-19T02:41:12.156Z,16
2024-01-19T02:42:12.099Z,14
2024-01-19T02:43:12.118Z,15
2024-01-19T02:45:12.102Z,15
2024-01-19T02:46:12.121Z,16
2024-01-19T02:47:12.105Z,16
2024-01-19T02:48:12.196Z,15
2024-01-19T02:50:12.100Z,15
2024-01-19T02:51:12.121Z,15
2024-01-19T02:52:12.093Z,15
2024-01-19T02:53:12.105Z,14
2024-01-19T02:54:12.101Z,16
2024-01-19T02:56:12.110Z,14
2024-01-19T02:57:12.110Z,15
2024-01-19T02:58:12.103Z,15
2024-01-19T03:00:12.126Z,15
2024-01-19T03:01:12.097Z,16
2024-01-19T03:02:12.097Z,14
2024-01-19T03:03:12.204Z,15
2024-01-19T03:04:12.114Z,16
2024-01-19T03:05:12.244Z,15
2024-01-19T03:06:12.223Z,15
2024-01-19T03:07:12.106Z,17
2024-01-19T03:08:12.106Z,15
2024-01-19T03:09:12.092Z,15
2024-01-19T03:10:12.096Z,16
2024-01-19T03:11:12.107Z,14
2024-01-19T03:12:12.096Z,14
2024-01-19T03:13:12.108Z,15
2024-01-19T03:14:12.104Z,16
2024-01-19T03:15:12.090Z,14
2024-01-19T03:16:12.080Z,15
2024-01-19T03:17:12.081Z,15
2024-01-19T03:18:12.292Z,15
2024-01-19T03:19:12.110Z,14
2024-01-19T03:21:12.100Z,15
2024-01-19T03:22:12.157Z,15
2024-01-19T03:23:12.121Z,16
2024-01-19T03:24:12.113Z,15
2024-01-19T03:25:12.090Z,15
2024-01-19T03:26:12.082Z,15
2024-01-19T03:27:12.096Z,15
2024-01-19T03:28:12.107Z,16
2024-01-19T03:29:12.095Z,15
2024-01-19T03:30:12.084Z,16
2024-01-19T03:31:12.105Z,15
2024-01-19T03:32:12.080Z,15
2024-01-19T03:33:12.156Z,16
2024-01-19T03:35:12.082Z,16
2024-01-19T03:36:12.153Z,16
2024-01-19T03:37:12.086Z,14
2024-01-19T03:38:12.076Z,15
2024-01-19T03:39:12.142Z,14
2024-01-19T03:40:12.074Z,15
2024-01-19T03:41:12.076Z,14
2024-01-19T03:42:12.114Z,15
2024-01-19T03:43:12.074Z,15
2024-01-19T03:44:12.084Z,15
2024-01-19T03:45:12.078Z,16
2024-01-19T03:46:12.070Z,16
2024-01-19T03:47:12.074Z,13
2024-01-19T03:48:12.167Z,14
2024-01-19T03:49:12.075Z,15
2024-01-19T03:50:12.174Z,14
2024-01-19T03:51:12.192Z,15
2024-01-19T03:52:12.082Z,14
2024-01-19T03:53:12.073Z,14
2024-01-19T03:54:12.081Z,15
2024-01-19T03:55:12.079Z,15
2024-01-19T03:56:12.092Z,15
2024-01-19T03:57:12.073Z,15
2024-01-19T03:58:12.092Z,16
2024-01-19T03:59:12.072Z,15
2024-01-19T04:00:12.074Z,16
2024-01-19T04:01:12.182Z,16
2024-01-19T04:02:12.071Z,17
2024-01-19T04:03:12.230Z,15
2024-01-19T04:04:12.120Z,16
2024-01-19T04:05:12.114Z,15
2024-01-19T04:06:12.204Z,15
2024-01-19T04:07:12.085Z,16
2024-01-19T04:08:12.073Z,16
2024-01-19T04:09:12.070Z,16
2024-01-19T04:10:12.094Z,17
2024-01-19T04:11:12.064Z,15
2024-01-19T04:12:12.066Z,15
2024-01-19T04:13:12.088Z,14
2024-01-19T04:14:12.074Z,15
2024-01-19T04:15:12.075Z,15
2024-01-19T04:16:12.112Z,16
2024-01-19T04:17:12.082Z,16
2024-01-19T04:18:12.170Z,16
2024-01-19T04:20:12.108Z,16
2024-01-19T04:21:12.086Z,15
2024-01-19T04:22:12.083Z,15
2024-01-19T04:23:12.064Z,15
2024-01-19T04:24:12.078Z,15
2024-01-19T04:25:12.089Z,13
2024-01-19T04:26:12.083Z,15
2024-01-19T04:27:12.092Z,14
2024-01-19T04:28:12.072Z,14
2024-01-19T04:29:12.075Z,15
2024-01-19T04:30:12.106Z,13
2024-01-19T04:31:12.112Z,15
2024-01-19T04:32:12.078Z,14
2024-01-19T04:33:12.129Z,15
2024-01-19T04:34:12.141Z,15
2024-01-19T04:35:12.081Z,16
2024-01-19T04:36:12.110Z,15
2024-01-19T04:37:12.085Z,15
2024-01-19T04:38:12.067Z,15
2024-01-19T04:39:12.064Z,15
2024-01-19T04:40:12.103Z,14
2024-01-19T04:41:12.096Z,14
2024-01-19T04:42:12.086Z,14
2024-01-19T04:43:12.070Z,14
2024-01-19T04:44:12.072Z,14
2024-01-19T04:45:12.071Z,12
2024-01-19T04:46:12.074Z,14
2024-01-19T04:47:12.087Z,15
2024-01-19T04:48:12.230Z,14
2024-01-19T04:49:12.155Z,15
2024-01-19T04:50:12.063Z,15
2024-01-19T04:51:12.086Z,14
2024-01-19T04:52:12.125Z,14
2024-01-19T04:53:12.087Z,15
2024-01-19T04:54:12.079Z,14
2024-01-19T04:55:12.088Z,14
2024-01-19T04:56:12.066Z,14
2024-01-19T04:57:12.137Z,14
2024-01-19T04:58:12.073Z,14
2024-01-19T04:59:12.128Z,14
2024-01-19T05:00:12.088Z,15
2024-01-19T05:02:14.137Z,14
2024-01-19T05:03:12.134Z,15
2024-01-19T05:04:12.120Z,15
2024-01-19T05:05:12.169Z,14
2024-01-19T05:06:12.107Z,14
2024-01-19T05:08:12.073Z,14
2024-01-19T05:09:12.130Z,12
2024-01-19T05:10:12.054Z,14
2024-01-19T05:11:12.067Z,14
2024-01-19T05:12:12.076Z,14
2024-01-19T05:13:12.058Z,13
2024-01-19T05:14:12.086Z,12
2024-01-19T05:15:12.076Z,13
2024-01-19T05:17:12.065Z,12
2024-01-19T05:18:12.098Z,12
2024-01-19T05:19:12.088Z,12
2024-01-19T05:20:12.075Z,12
2024-01-19T05:21:12.130Z,11
2024-01-19T05:22:12.083Z,12
2024-01-19T05:23:12.109Z,11
2024-01-19T05:24:12.065Z,11
2024-01-19T05:25:12.064Z,11
2024-01-19T05:26:12.077Z,10
2024-01-19T05:27:12.066Z,11
2024-01-19T05:28:12.065Z,11
2024-01-19T05:29:12.069Z,11
2024-01-19T05:30:12.095Z,11
2024-01-19T05:31:12.057Z,11
2024-01-19T05:32:12.098Z,12
2024-01-19T05:33:12.258Z,11
2024-01-19T05:34:12.295Z,11
2024-01-19T05:35:12.115Z,11
2024-01-19T05:37:12.079Z,11
2024-01-19T05:38:12.072Z,11
2024-01-19T05:39:12.048Z,11
2024-01-19T05:40:12.299Z,11
2024-01-19T05:41:12.146Z,11
2024-01-19T05:42:12.082Z,11
2024-01-19T05:43:12.074Z,11
2024-01-19T05:44:12.071Z,11
2024-01-19T05:45:12.094Z,10
2024-01-19T05:46:12.053Z,11
2024-01-19T05:47:12.097Z,10
2024-01-19T05:48:12.213Z,11
2024-01-19T05:49:12.128Z,11
2024-01-19T05:50:12.111Z,10
2024-01-19T05:51:12.085Z,11
2024-01-19T05:52:12.236Z,10
2024-01-19T05:53:12.121Z,11
2024-01-19T05:54:12.086Z,10
2024-01-19T05:55:12.124Z,10
2024-01-19T05:56:12.186Z,10
2024-01-19T05:57:12.161Z,10
2024-01-19T05:58:12.165Z,10
2024-01-19T05:59:12.175Z,10
2024-01-19T06:00:12.272Z,10
2024-01-19T06:01:12.247Z,9
2024-01-19T06:02:12.158Z,10
2024-01-19T06:03:12.187Z,10
2024-01-19T06:04:12.148Z,10
2024-01-19T06:05:12.190Z,10
2024-01-19T06:06:12.198Z,9
2024-01-19T06:07:12.062Z,10
2024-01-19T06:08:12.069Z,9
2024-01-19T06:09:12.055Z,9
2024-01-19T06:10:12.060Z,9
2024-01-19T06:11:12.054Z,11
2024-01-19T06:12:12.067Z,9
2024-01-19T06:13:12.050Z,9
2024-01-19T06:14:12.061Z,10
2024-01-19T06:15:12.068Z,9
2024-01-19T06:16:12.050Z,11
2024-01-19T06:17:12.058Z,9
2024-01-19T06:18:12.270Z,9
2024-01-19T06:19:12.170Z,9
2024-01-19T06:20:12.081Z,9
2024-01-19T06:21:12.070Z,9
2024-01-19T06:22:12.070Z,10
2024-01-19T06:23:12.060Z,9
2024-01-19T06:24:12.071Z,9
2024-01-19T06:25:12.060Z,9
2024-01-19T06:26:12.127Z,9
2024-01-19T06:27:12.058Z,9
2024-01-19T06:28:12.069Z,9
2024-01-19T06:29:12.054Z,9
2024-01-19T06:30:12.085Z,9
2024-01-19T06:31:12.055Z,8
2024-01-19T06:32:12.045Z,8
2024-01-19T06:33:12.132Z,9
2024-01-19T06:34:12.107Z,8
2024-01-19T06:35:12.166Z,8
2024-01-19T06:36:12.097Z,8
2024-01-19T06:37:12.059Z,9
2024-01-19T06:38:12.051Z,9
2024-01-19T06:39:12.066Z,8
2024-01-19T06:40:12.041Z,8
2024-01-19T06:41:12.044Z,9
2024-01-19T06:42:12.108Z,9
2024-01-19T06:43:12.062Z,8
2024-01-19T06:44:12.055Z,8
2024-01-19T06:45:12.113Z,9
2024-01-19T06:46:12.076Z,8
2024-01-19T06:47:12.063Z,9
2024-01-19T06:48:12.206Z,9
2024-01-19T06:49:12.193Z,9
2024-01-19T06:50:12.129Z,9
2024-01-19T06:51:12.175Z,8
2024-01-19T06:52:12.073Z,9
2024-01-19T06:53:12.058Z,9
2024-01-19T06:54:12.090Z,9
2024-01-19T06:55:12.068Z,9
2024-01-19T06:56:12.050Z,8
2024-01-19T06:57:12.067Z,8
2024-01-19T06:58:12.047Z,9
2024-01-19T06:59:12.048Z,9
2024-01-19T07:00:12.169Z,9
2024-01-19T07:01:12.119Z,9
2024-01-19T07:02:12.060Z,9
2024-01-19T07:03:12.155Z,9
2024-01-19T07:04:12.063Z,9
2024-01-19T07:05:12.065Z,9
2024-01-19T07:06:12.207Z,8
2024-01-19T07:07:12.072Z,9
2024-01-19T07:08:12.075Z,9
2024-01-19T07:09:12.093Z,8
2024-01-19T07:10:12.047Z,8
2024-01-19T07:11:12.055Z,8
2024-01-19T07:12:12.039Z,8
2024-01-19T07:13:12.054Z,9
2024-01-19T07:14:12.047Z,8
2024-01-19T07:15:12.109Z,9
2024-01-19T07:16:12.074Z,10
2024-01-19T07:17:15.396Z,9
2024-01-19T07:18:12.131Z,8
2024-01-19T07:19:12.127Z,9
2024-01-19T07:20:12.149Z,9
2024-01-19T07:21:12.109Z,9
2024-01-19T07:22:12.079Z,8
2024-01-19T07:23:12.040Z,8
2024-01-19T07:24:12.090Z,9
2024-01-19T07:25:12.067Z,9
2024-01-19T07:26:12.062Z,9
2024-01-19T07:27:12.083Z,9
2024-01-19T07:28:12.076Z,9
2024-01-19T07:29:12.096Z,9
2024-01-19T07:30:12.399Z,10
2024-01-19T07:31:12.322Z,10
2024-01-19T07:32:12.070Z,9
2024-01-19T07:33:19.379Z,9
2024-01-19T07:34:12.269Z,9
2024-01-19T07:35:12.284Z,9
2024-01-19T07:36:12.150Z,9
2024-01-19T07:37:12.097Z,9
2024-01-19T07:38:12.043Z,9
2024-01-19T07:39:12.045Z,9
2024-01-19T07:40:12.032Z,9
2024-01-19T07:41:12.037Z,9
2024-01-19T07:42:12.046Z,9
2024-01-19T07:43:12.053Z,9
2024-01-19T07:44:12.035Z,10
2024-01-19T07:45:12.072Z,9
2024-01-19T07:46:12.034Z,10
2024-01-19T07:47:12.044Z,9
2024-01-19T07:48:12.216Z,8
2024-01-19T07:49:12.099Z,9
2024-01-19T07:50:12.071Z,9
2024-01-19T07:51:12.042Z,8
2024-01-19T07:52:12.039Z,9
2024-01-19T07:53:12.064Z,8
2024-01-19T07:54:12.044Z,8
2024-01-19T07:55:12.039Z,7
2024-01-19T07:56:12.071Z,8
2024-01-19T07:57:12.069Z,8
2024-01-19T07:58:12.039Z,8
2024-01-19T08:00:12.060Z,7
2024-01-19T08:01:12.125Z,7
2024-01-19T08:02:12.054Z,7
2024-01-19T08:03:12.139Z,8
2024-01-19T08:04:12.087Z,7
2024-01-19T08:05:12.140Z,8
2024-01-19T08:06:12.195Z,8
2024-01-19T08:07:12.042Z,8
2024-01-19T08:08:12.038Z,8
2024-01-19T08:09:12.033Z,7
2024-01-19T08:10:12.042Z,8
2024-01-19T08:11:12.036Z,8
2024-01-19T08:12:12.051Z,7
2024-01-19T08:13:12.059Z,8
2024-01-19T08:14:12.035Z,8
2024-01-19T08:15:12.042Z,8
2024-01-19T08:16:12.048Z,7
2024-01-19T08:17:12.057Z,8
2024-01-19T08:18:12.203Z,7
2024-01-19T08:19:12.204Z,8
2024-01-19T08:20:12.384Z,8
2024-01-19T08:21:12.038Z,8
2024-01-19T08:22:12.029Z,8
2024-01-19T08:23:12.043Z,8
2024-01-19T08:24:12.045Z,8
2024-01-19T08:25:12.047Z,7
2024-01-19T08:26:12.044Z,7
2024-01-19T08:27:12.050Z,7
2024-01-19T08:28:12.037Z,7
2024-01-19T08:29:12.032Z,7
2024-01-19T08:30:12.194Z,7
2024-01-19T08:31:12.030Z,8
2024-01-19T08:32:12.031Z,8
2024-01-19T08:33:12.098Z,8
2024-01-19T08:34:12.048Z,8
2024-01-19T08:35:12.034Z,7
2024-01-19T08:36:12.077Z,8
2024-01-19T08:37:12.038Z,8
2024-01-19T08:38:12.047Z,8
2024-01-19T08:39:12.053Z,8
2024-01-19T08:40:12.095Z,7
2024-01-19T08:41:12.045Z,7
2024-01-19T08:42:12.040Z,8
2024-01-19T08:43:12.034Z,8
2024-01-19T08:44:12.087Z,8
2024-01-19T08:45:12.099Z,7
2024-01-19T08:46:12.071Z,8
2024-01-19T08:47:12.044Z,8
2024-01-19T08:48:12.065Z,8
2024-01-19T08:49:12.173Z,8
2024-01-19T08:50:12.030Z,7
2024-01-19T08:51:12.078Z,8
2024-01-19T08:52:12.146Z,8
2024-01-19T08:53:12.044Z,8
2024-01-19T08:54:12.029Z,7
2024-01-19T08:55:12.034Z,8
2024-01-19T08:56:12.027Z,8
2024-01-19T08:57:12.058Z,7
2024-01-19T08:58:12.053Z,7
2024-01-19T08:59:12.034Z,8
2024-01-19T09:00:12.092Z,8
2024-01-19T09:01:12.084Z,8
2024-01-19T09:02:12.026Z,7
2024-01-19T09:03:12.160Z,8
2024-01-19T09:04:12.132Z,8
2024-01-19T09:05:12.082Z,8
2024-01-19T09:06:15.318Z,8
2024-01-19T09:07:12.133Z,8
2024-01-19T09:08:12.029Z,8
2024-01-19T09:09:12.026Z,8
2024-01-19T09:10:12.018Z,8
2024-01-19T09:11:12.030Z,8
2024-01-19T09:12:12.037Z,8
2024-01-19T09:13:12.019Z,8
2024-01-19T09:14:12.615Z,8
2024-01-19T09:15:12.050Z,8
2024-01-19T09:16:12.010Z,8
2024-01-19T09:17:12.025Z,8
2024-01-19T09:18:12.193Z,8
2024-01-19T09:19:12.101Z,8
2024-01-19T09:20:12.129Z,8
2024-01-19T09:21:12.146Z,8
2024-01-19T09:22:12.052Z,8
2024-01-19T09:23:12.155Z,8
2024-01-19T09:24:12.212Z,8
2024-01-19T09:25:12.407Z,8
2024-01-19T09:26:12.329Z,8
2024-01-19T09:27:12.332Z,7
2024-01-19T09:28:12.352Z,7
2024-01-19T09:29:12.312Z,8
2024-01-19T09:30:12.417Z,8
2024-01-19T09:31:12.495Z,8
2024-01-19T09:32:12.022Z,7
2024-01-19T09:33:12.096Z,8
2024-01-19T09:34:12.082Z,8
2024-01-19T09:35:12.054Z,8
2024-01-19T09:36:12.066Z,9
2024-01-19T09:37:12.022Z,8
2024-01-19T09:38:12.023Z,8
2024-01-19T09:39:12.019Z,8
2024-01-19T09:40:12.029Z,9
2024-01-19T09:42:12.029Z,8
2024-01-19T09:43:12.029Z,8
2024-01-19T09:44:12.015Z,8
2024-01-19T09:45:12.059Z,8
2024-01-19T09:46:12.097Z,8
2024-01-19T09:47:12.025Z,8
2024-01-19T09:48:12.176Z,8
2024-01-19T09:50:12.055Z,9
2024-01-19T09:51:12.063Z,8
2024-01-19T09:52:12.013Z,8
2024-01-19T09:53:12.009Z,7
2024-01-19T09:54:12.028Z,8
2024-01-19T09:56:12.058Z,8
2024-01-19T09:57:12.036Z,9
2024-01-19T09:58:12.034Z,9
2024-01-19T09:59:12.018Z,9
2024-01-19T10:00:12.015Z,8
2024-01-19T10:01:12.082Z,8
2024-01-19T10:02:12.022Z,8
2024-01-19T10:03:12.066Z,9
2024-01-19T10:04:12.053Z,9
2024-01-19T10:05:12.040Z,9
2024-01-19T10:06:12.157Z,10
2024-01-19T10:07:12.070Z,8
2024-01-19T10:08:12.030Z,9
2024-01-19T10:09:12.034Z,9
2024-01-19T10:10:12.020Z,9
2024-01-19T10:11:12.044Z,9
2024-01-19T10:12:12.031Z,11
2024-01-19T10:13:12.017Z,11
2024-01-19T10:14:12.012Z,11
2024-01-19T10:15:12.057Z,9
2024-01-19T10:16:12.024Z,10
2024-01-19T10:18:12.165Z,11
2024-01-19T10:19:12.077Z,15
2024-01-19T10:20:12.084Z,15
2024-01-19T10:21:12.039Z,15
2024-01-19T10:23:12.010Z,14
2024-01-19T10:24:12.015Z,11
2024-01-19T10:25:12.033Z,11
2024-01-19T10:26:12.018Z,12
2024-01-19T10:27:12.025Z,13
2024-01-19T10:28:12.017Z,13
2024-01-19T10:29:12.052Z,12
2024-01-19T10:30:12.208Z,15
2024-01-19T10:31:12.071Z,14
2024-01-19T10:32:12.032Z,13
2024-01-19T10:33:12.117Z,13
2024-01-19T10:34:12.164Z,16
2024-01-19T10:35:12.005Z,14
2024-01-19T10:36:12.131Z,13
2024-01-19T10:37:12.014Z,12
2024-01-19T10:38:12.022Z,11
2024-01-19T10:39:12.014Z,12
2024-01-19T10:40:12.010Z,12
2024-01-19T10:41:12.064Z,11
2024-01-19T10:42:12.060Z,11
2024-01-19T10:44:12.018Z,12
2024-01-19T10:45:12.010Z,11
2024-01-19T10:46:12.017Z,12
2024-01-19T10:48:12.089Z,12
2024-01-19T10:49:12.088Z,12
2024-01-19T10:50:12.043Z,12
2024-01-19T10:51:12.019Z,13
2024-01-19T10:52:13.296Z,12
2024-01-19T10:53:12.076Z,13
2024-01-19T10:54:12.021Z,13
2024-01-19T10:55:12.035Z,12
2024-01-19T10:56:12.004Z,12
2024-01-19T10:57:12.031Z,13
2024-01-19T10:58:12.019Z,12
2024-01-19T10:59:12.011Z,12
2024-01-19T11:00:12.070Z,13
2024-01-19T11:01:12.080Z,13
2024-01-19T11:02:12.037Z,13
2024-01-19T11:03:12.190Z,11
2024-01-19T11:04:12.059Z,12
2024-01-19T11:05:12.029Z,13
2024-01-19T11:06:12.067Z,13
2024-01-19T11:07:12.088Z,12
2024-01-19T11:08:12.023Z,12
2024-01-19T11:09:12.020Z,13
2024-01-19T11:10:12.019Z,12
2024-01-19T11:11:12.016Z,13
2024-01-19T11:12:12.013Z,13
2024-01-19T11:13:12.002Z,13
2024-01-19T11:14:12.027Z,13
2024-01-19T11:15:12.212Z,13
2024-01-19T11:16:12.022Z,13
2024-01-19T11:17:12.012Z,13
2024-01-19T11:18:12.179Z,13
2024-01-19T11:19:12.301Z,13
2024-01-19T11:20:12.051Z,13
2024-01-19T11:21:12.073Z,14
2024-01-19T11:22:12.038Z,13
2024-01-19T11:23:12.032Z,13
2024-01-19T11:24:12.097Z,13
2024-01-19T11:25:12.005Z,13
2024-01-19T11:26:12.000Z,13
2024-01-19T11:27:12.015Z,14
2024-01-19T11:28:12.003Z,13
2024-01-19T11:29:16.784Z,14
2024-01-19T11:30:12.039Z,12
2024-01-19T11:31:12.145Z,13
2024-01-19T11:32:12.011Z,14
2024-01-19T11:33:12.115Z,13
2024-01-19T11:34:12.050Z,12
2024-01-19T11:35:12.025Z,13
2024-01-19T11:36:12.036Z,13
2024-01-19T11:37:12.016Z,13
2024-01-19T11:38:12.009Z,13
2024-01-19T11:39:12.018Z,13
2024-01-19T11:40:12.022Z,14
2024-01-19T11:41:12.016Z,14
2024-01-19T11:42:12.149Z,13
2024-01-19T11:43:12.008Z,13
2024-01-19T11:44:11.994Z,12
2024-01-19T11:45:12.031Z,11
2024-01-19T11:46:12.089Z,13
2024-01-19T11:47:12.006Z,13
2024-01-19T11:48:12.095Z,13
2024-01-19T11:49:12.034Z,13
2024-01-19T11:50:12.028Z,14
2024-01-19T11:51:12.050Z,12
2024-01-19T11:52:11.997Z,13
2024-01-19T11:53:12.017Z,12
2024-01-19T11:54:12.040Z,13
2024-01-19T11:55:12.003Z,13
2024-01-19T11:56:12.072Z,13
2024-01-19T11:57:12.063Z,13
2024-01-19T11:58:12.024Z,14
2024-01-19T12:00:12.044Z,14
2024-01-19T12:01:12.055Z,12
2024-01-19T12:02:12.006Z,14
2024-01-19T12:03:12.095Z,17
2024-01-19T12:04:11.998Z,16
2024-01-19T12:05:13.625Z,14
2024-01-19T12:06:12.158Z,13
2024-01-19T12:08:12.014Z,14
2024-01-19T12:09:12.139Z,14
2024-01-19T12:10:12.009Z,12
2024-01-19T12:11:12.070Z,12
2024-01-19T12:12:12.090Z,13
2024-01-19T12:13:12.000Z,14
2024-01-19T12:14:12.009Z,13
2024-01-19T12:15:12.566Z,13
2024-01-19T12:16:12.073Z,13
2024-01-19T12:17:12.012Z,13
2024-01-19T12:18:12.010Z,12
2024-01-19T12:19:12.037Z,13
2024-01-19T12:20:12.041Z,13
2024-01-19T12:21:12.011Z,13
2024-01-19T12:22:12.012Z,12
2024-01-19T12:23:12.031Z,13
2024-01-19T12:24:12.002Z,14
2024-01-19T12:25:12.015Z,13
2024-01-19T12:26:12.067Z,13
2024-01-19T12:27:12.002Z,13
2024-01-19T12:28:11.997Z,13
2024-01-19T12:29:12.074Z,13
2024-01-19T12:30:12.026Z,13
2024-01-19T12:31:12.014Z,14
2024-01-19T12:32:12.153Z,15
2024-01-19T12:33:12.042Z,15
2024-01-19T12:34:12.065Z,17
2024-01-19T12:35:12.034Z,17
2024-01-19T12:36:12.031Z,14
2024-01-19T12:37:12.022Z,15
2024-01-19T12:38:12.041Z,14
2024-01-19T12:39:12.101Z,13
2024-01-19T12:40:12.066Z,14
2024-01-19T12:41:12.006Z,14
2024-01-19T12:42:12.014Z,14
2024-01-19T12:43:12.001Z,13
2024-01-19T12:44:12.042Z,14
2024-01-19T12:45:12.027Z,12
2024-01-19T12:46:11.996Z,14
2024-01-19T12:47:12.071Z,14
2024-01-19T12:48:21.294Z,14
2024-01-19T12:49:12.033Z,13
2024-01-19T12:50:17.297Z,14
2024-01-19T12:51:12.059Z,12
2024-01-19T12:52:12.014Z,12
2024-01-19T12:53:11.989Z,12
2024-01-19T12:54:11.993Z,12
2024-01-19T12:55:12.014Z,13
2024-01-19T12:56:12.029Z,12
2024-01-19T12:57:12.002Z,12
2024-01-19T12:58:12.006Z,11
2024-01-19T12:59:12.019Z,11
2024-01-19T13:00:11.995Z,12
2024-01-19T13:01:12.024Z,11
2024-01-19T13:02:12.008Z,11
2024-01-19T13:03:13.772Z,12
2024-01-19T13:04:11.999Z,12
2024-01-19T13:05:12.065Z,12
2024-01-19T13:06:12.044Z,12
2024-01-19T13:07:11.996Z,12
2024-01-19T13:08:12.022Z,12
2024-01-19T13:09:12.046Z,12
2024-01-19T13:10:12.024Z,12
2024-01-19T13:11:12.171Z,11
2024-01-19T13:12:11.991Z,12
2024-01-19T13:13:12.002Z,12
2024-01-19T13:14:12.129Z,11
2024-01-19T13:15:11.998Z,12
2024-01-19T13:16:12.001Z,12
2024-01-19T13:17:12.044Z,11
2024-01-19T13:18:12.295Z,12
2024-01-19T13:19:12.051Z,12
2024-01-19T13:20:12.029Z,11
2024-01-19T13:21:12.043Z,12
2024-01-19T13:22:12.008Z,11
2024-01-19T13:23:12.116Z,11
2024-01-19T13:24:12.003Z,12
2024-01-19T13:25:11.987Z,12
2024-01-19T13:26:12.116Z,12
2024-01-19T13:27:11.996Z,12
2024-01-19T13:28:12.013Z,12
2024-01-19T13:29:12.054Z,12
2024-01-19T13:30:12.021Z,12
2024-01-19T13:31:12.014Z,12
2024-01-19T13:32:12.095Z,11
2024-01-19T13:33:13.644Z,11
2024-01-19T13:34:12.122Z,11
2024-01-19T13:35:12.151Z,12
2024-01-19T13:36:12.007Z,12
2024-01-19T13:37:12.002Z,12
2024-01-19T13:38:12.108Z,11
2024-01-19T13:39:11.999Z,13
2024-01-19T13:40:11.989Z,12
2024-01-19T13:41:12.087Z,13
2024-01-19T13:42:12.012Z,12
2024-01-19T13:43:11.998Z,12
2024-01-19T13:44:12.099Z,12
2024-01-19T13:45:12.007Z,11
2024-01-19T13:46:11.985Z,12
2024-01-19T13:47:12.044Z,12
2024-01-19T13:48:12.032Z,11
2024-01-19T13:50:12.168Z,12
2024-01-19T13:51:11.988Z,12
2024-01-19T13:52:12.033Z,11
2024-01-19T13:53:12.085Z,12
2024-01-19T13:54:11.990Z,12
2024-01-19T13:55:11.987Z,12
2024-01-19T13:56:12.052Z,12
2024-01-19T13:57:12.006Z,12
2024-01-19T13:58:11.987Z,13
2024-01-19T13:59:12.192Z,12
2024-01-19T14:00:12.042Z,13
2024-01-19T14:01:12.026Z,13
2024-01-19T14:02:12.092Z,12
2024-01-19T14:03:12.060Z,13
2024-01-19T14:04:11.980Z,13
2024-01-19T14:05:12.050Z,13
2024-01-19T14:06:12.101Z,12
2024-01-19T14:07:12.006Z,12
2024-01-19T14:08:12.044Z,12
2024-01-19T14:09:12.026Z,13
2024-01-19T14:10:12.020Z,12
2024-01-19T14:11:12.018Z,13
2024-01-19T14:12:11.989Z,13
2024-01-19T14:14:12.025Z,13
2024-01-19T14:15:12.001Z,13
2024-01-19T14:16:12.012Z,12
2024-01-19T14:17:12.169Z,13
2024-01-19T14:18:12.018Z,12
2024-01-19T14:19:12.031Z,13
2024-01-19T14:20:12.091Z,13
2024-01-19T14:21:12.017Z,12
2024-01-19T14:22:12.000Z,12
2024-01-19T14:23:12.053Z,13
2024-01-19T14:24:12.005Z,14
2024-01-19T14:26:12.141Z,13
2024-01-19T14:27:12.016Z,13
2024-01-19T14:28:12.154Z,12
2024-01-19T14:29:12.071Z,13
2024-01-19T14:30:12.032Z,12
2024-01-19T14:31:11.996Z,13
2024-01-19T14:32:12.042Z,13
2024-01-19T14:33:12.042Z,13
2024-01-19T14:34:12.082Z,13
2024-01-19T14:35:12.150Z,13
2024-01-19T14:36:12.012Z,12
2024-01-19T14:37:12.012Z,13
2024-01-19T14:38:12.120Z,12
2024-01-19T14:39:12.041Z,13
2024-01-19T14:40:11.993Z,13
2024-01-19T14:41:12.139Z,13
2024-01-19T14:42:11.993Z,13
2024-01-19T14:43:12.078Z,13
2024-01-19T14:44:12.094Z,14
2024-01-19T14:45:12.046Z,13
2024-01-19T14:46:11.986Z,13
2024-01-19T14:47:12.056Z,12
2024-01-19T14:48:12.190Z,12
2024-01-19T14:49:12.075Z,12
2024-01-19T14:50:12.325Z,12
2024-01-19T14:51:12.637Z,12
2024-01-19T14:52:12.542Z,12